sensor_id;sensor_type;location;lat;lon;timestamp;pressure;altitude;pressure_sealevel;temperature;humidity
13011;BME280;6786;57.632;11.962;2023-09-30T00:00:01;100543.69;;;20.95;74.37
13011;BME280;6786;57.632;11.962;2023-09-30T00:02:35;100544.50;;;20.95;74.59
13011;BME280;6786;57.632;11.962;2023-09-30T00:05:05;100553.56;;;20.94;74.17
13011;BME280;6786;57.632;11.962;2023-09-30T00:07:33;100544.50;;;20.95;74.18
13011;BME280;6786;57.632;11.962;2023-09-30T00:10:01;100528.19;;;20.79;74.29
13011;BME280;6786;57.632;11.962;2023-09-30T00:12:31;100548.22;;;20.94;74.27
13011;BME280;6786;57.632;11.962;2023-09-30T00:14:59;100549.88;;;20.95;74.42
13011;BME280;6786;57.632;11.962;2023-09-30T00:17:27;100566.00;;;20.95;74.14
13011;BME280;6786;57.632;11.962;2023-09-30T00:19:56;100549.88;;;20.95;74.05
13011;BME280;6786;57.632;11.962;2023-09-30T00:22:25;100559.81;;;20.95;74.15
13011;BME280;6786;57.632;11.962;2023-09-30T00:24:53;100562.34;;;20.96;74.11
13011;BME280;6786;57.632;11.962;2023-09-30T00:27:22;100560.63;;;20.95;74.23
13011;BME280;6786;57.632;11.962;2023-09-30T00:29:50;100562.34;;;20.96;74.25
13011;BME280;6786;57.632;11.962;2023-09-30T00:32:18;100565.03;;;20.96;74.24
13011;BME280;6786;57.632;11.962;2023-09-30T00:34:46;100573.25;;;20.95;74.21
13011;BME280;6786;57.632;11.962;2023-09-30T00:37:15;100559.94;;;20.93;74.24
13011;BME280;6786;57.632;11.962;2023-09-30T00:39:44;100568.69;;;20.95;74.24
13011;BME280;6786;57.632;11.962;2023-09-30T00:42:13;100568.69;;;20.95;74.20
13011;BME280;6786;57.632;11.962;2023-09-30T00:44:41;100558.06;;;20.94;74.26
13011;BME280;6786;57.632;11.962;2023-09-30T00:47:09;100569.69;;;20.94;74.30
13011;BME280;6786;57.632;11.962;2023-09-30T00:49:37;100571.38;;;20.95;73.95
13011;BME280;6786;57.632;11.962;2023-09-30T00:52:06;100573.38;;;20.93;73.95
13011;BME280;6786;57.632;11.962;2023-09-30T00:54:34;100564.31;;;20.94;74.07
13011;BME280;6786;57.632;11.962;2023-09-30T00:57:06;100569.69;;;20.94;73.92
13011;BME280;6786;57.632;11.962;2023-09-30T00:59:34;100553.56;;;20.94;74.10
13011;BME280;6786;57.632;11.962;2023-09-30T01:02:01;100562.63;;;20.93;74.14
13011;BME280;6786;57.632;11.962;2023-09-30T01:04:32;100572.50;;;20.93;74.20
13011;BME280;6786;57.632;11.962;2023-09-30T01:07:00;100532.50;;;20.72;74.29
13011;BME280;6786;57.632;11.962;2023-09-30T01:09:28;100568.00;;;20.93;73.91
13011;BME280;6786;57.632;11.962;2023-09-30T01:11:56;100554.16;;;20.88;74.22
13011;BME280;6786;57.632;11.962;2023-09-30T01:14:27;100559.53;;;20.88;74.20
13011;BME280;6786;57.632;11.962;2023-09-30T01:16:56;100561.19;;;20.89;74.06
13011;BME280;6786;57.632;11.962;2023-09-30T01:19:25;100557.28;;;20.84;74.09
13011;BME280;6786;57.632;11.962;2023-09-30T01:21:55;100561.19;;;20.89;74.25
13011;BME280;6786;57.632;11.962;2023-09-30T01:24:27;100571.28;;;20.87;74.25
13011;BME280;6786;57.632;11.962;2023-09-30T01:26:55;100568.59;;;20.87;74.01
13011;BME280;6786;57.632;11.962;2023-09-30T01:29:23;100563.06;;;20.89;74.12
13011;BME280;6786;57.632;11.962;2023-09-30T01:31:52;100564.91;;;20.88;74.09
13011;BME280;6786;57.632;11.962;2023-09-30T01:34:21;100557.00;;;20.87;74.01
13011;BME280;6786;57.632;11.962;2023-09-30T01:36:49;100564.91;;;20.88;74.11
13011;BME280;6786;57.632;11.962;2023-09-30T01:39:19;100564.91;;;20.88;73.88
13011;BME280;6786;57.632;11.962;2023-09-30T01:41:48;100569.41;;;20.88;74.10
13011;BME280;6786;57.632;11.962;2023-09-30T01:44:16;100556.69;;;20.90;73.90
13011;BME280;6786;57.632;11.962;2023-09-30T01:46:44;100564.91;;;20.88;73.85
13011;BME280;6786;57.632;11.962;2023-09-30T01:49:12;100559.53;;;20.88;74.01
13011;BME280;6786;57.632;11.962;2023-09-30T01:51:40;100559.53;;;20.88;73.79
13011;BME280;6786;57.632;11.962;2023-09-30T01:54:08;100559.53;;;20.88;73.96
13011;BME280;6786;57.632;11.962;2023-09-30T01:56:39;100564.91;;;20.88;73.71
13011;BME280;6786;57.632;11.962;2023-09-30T01:59:07;100553.28;;;20.88;73.76
13011;BME280;6786;57.632;11.962;2023-09-30T02:01:35;100561.50;;;20.86;73.69
13011;BME280;6786;57.632;11.962;2023-09-30T02:04:04;100558.66;;;20.88;73.90
13011;BME280;6786;57.632;11.962;2023-09-30T02:06:33;100562.34;;;20.87;73.81
13011;BME280;6786;57.632;11.962;2023-09-30T02:09:03;100559.81;;;20.85;74.03
13011;BME280;6786;57.632;11.962;2023-09-30T02:11:32;100555.31;;;20.86;74.02
13011;BME280;6786;57.632;11.962;2023-09-30T02:14:01;100568.59;;;20.87;73.82
13011;BME280;6786;57.632;11.962;2023-09-30T02:16:30;100565.91;;;20.87;73.96
13011;BME280;6786;57.632;11.962;2023-09-30T02:18:58;100497.03;;;20.42;73.46
13011;BME280;6786;57.632;11.962;2023-09-30T02:21:26;100574.78;;;20.88;73.59
13011;BME280;6786;57.632;11.962;2023-09-30T02:23:55;100580.31;;;20.86;73.66
13011;BME280;6786;57.632;11.962;2023-09-30T02:26:23;100586.38;;;20.88;73.84
13011;BME280;6786;57.632;11.962;2023-09-30T02:28:54;100583.00;;;20.86;73.51
13011;BME280;6786;57.632;11.962;2023-09-30T02:31:24;100594.44;;;20.88;73.89
13011;BME280;6786;57.632;11.962;2023-09-30T02:33:52;100586.38;;;20.88;73.66
13011;BME280;6786;57.632;11.962;2023-09-30T02:36:20;100591.75;;;20.88;73.88
13011;BME280;6786;57.632;11.962;2023-09-30T02:38:48;100582.69;;;20.89;73.79
13011;BME280;6786;57.632;11.962;2023-09-30T02:41:16;100591.75;;;20.88;73.73
13011;BME280;6786;57.632;11.962;2023-09-30T02:43:45;100596.28;;;20.88;73.41
13011;BME280;6786;57.632;11.962;2023-09-30T02:46:13;100586.69;;;20.85;73.68
13011;BME280;6786;57.632;11.962;2023-09-30T02:48:43;100590.09;;;20.87;73.36
13011;BME280;6786;57.632;11.962;2023-09-30T02:51:11;100593.59;;;20.88;73.52
13011;BME280;6786;57.632;11.962;2023-09-30T02:53:40;100515.66;;;20.43;73.49
13011;BME280;6786;57.632;11.962;2023-09-30T02:56:08;100584.72;;;20.87;73.49
13011;BME280;6786;57.632;11.962;2023-09-30T02:58:36;100590.09;;;20.87;73.76
13011;BME280;6786;57.632;11.962;2023-09-30T03:01:05;100589.22;;;20.87;73.65
13011;BME280;6786;57.632;11.962;2023-09-30T03:03:33;100590.09;;;20.87;73.33
13011;BME280;6786;57.632;11.962;2023-09-30T03:06:03;100589.22;;;20.87;73.66
13011;BME280;6786;57.632;11.962;2023-09-30T03:08:32;100596.44;;;20.86;73.37
13011;BME280;6786;57.632;11.962;2023-09-30T03:11:02;100599.13;;;20.86;73.64
13011;BME280;6786;57.632;11.962;2023-09-30T03:13:30;100595.44;;;20.87;73.47
13011;BME280;6786;57.632;11.962;2023-09-30T03:15:58;100588.38;;;20.86;73.38
13011;BME280;6786;57.632;11.962;2023-09-30T03:18:27;100602.50;;;20.88;73.59
13011;BME280;6786;57.632;11.962;2023-09-30T03:20:59;100595.44;;;20.87;73.18
13011;BME280;6786;57.632;11.962;2023-09-30T03:23:29;100600.81;;;20.87;73.17
13011;BME280;6786;57.632;11.962;2023-09-30T03:25:58;100593.75;;;20.86;73.62
13011;BME280;6786;57.632;11.962;2023-09-30T03:28:26;100594.75;;;20.85;73.25
13011;BME280;6786;57.632;11.962;2023-09-30T03:30:55;100594.75;;;20.85;73.25
13011;BME280;6786;57.632;11.962;2023-09-30T03:33:24;100592.38;;;20.82;73.50
13011;BME280;6786;57.632;11.962;2023-09-30T03:35:53;100601.13;;;20.84;73.60
13011;BME280;6786;57.632;11.962;2023-09-30T03:38:21;100586.69;;;20.85;73.36
13011;BME280;6786;57.632;11.962;2023-09-30T03:40:50;100593.06;;;20.84;73.25
13011;BME280;6786;57.632;11.962;2023-09-30T03:43:21;100592.06;;;20.85;73.23
13011;BME280;6786;57.632;11.962;2023-09-30T03:45:49;100585.00;;;20.84;73.66
13011;BME280;6786;57.632;11.962;2023-09-30T03:48:18;100585.00;;;20.84;73.48
13011;BME280;6786;57.632;11.962;2023-09-30T03:50:46;100590.38;;;20.84;73.33
13011;BME280;6786;57.632;11.962;2023-09-30T03:53:15;100591.19;;;20.85;73.32
13011;BME280;6786;57.632;11.962;2023-09-30T03:55:43;100594.91;;;20.84;73.18
13011;BME280;6786;57.632;11.962;2023-09-30T03:58:13;100584.16;;;20.84;73.39
13011;BME280;6786;57.632;11.962;2023-09-30T04:00:42;100588.66;;;20.83;73.13
13011;BME280;6786;57.632;11.962;2023-09-30T04:03:10;100583.28;;;20.83;73.40
13011;BME280;6786;57.632;11.962;2023-09-30T04:05:38;100584.31;;;20.82;73.45
13011;BME280;6786;57.632;11.962;2023-09-30T04:08:07;100561.81;;;20.83;73.53
13011;BME280;6786;57.632;11.962;2023-09-30T04:10:35;100576.25;;;20.82;73.46
13011;BME280;6786;57.632;11.962;2023-09-30T04:13:03;100576.25;;;20.82;73.39
13011;BME280;6786;57.632;11.962;2023-09-30T04:15:32;100581.31;;;20.85;73.31
13011;BME280;6786;57.632;11.962;2023-09-30T04:18:04;100568.88;;;20.84;73.24
13011;BME280;6786;57.632;11.962;2023-09-30T04:20:32;100576.25;;;20.82;73.28
13011;BME280;6786;57.632;11.962;2023-09-30T04:23:00;100576.25;;;20.82;73.19
13011;BME280;6786;57.632;11.962;2023-09-30T04:25:29;100576.25;;;20.82;73.14
13011;BME280;6786;57.632;11.962;2023-09-30T04:27:57;100575.38;;;20.82;73.35
13011;BME280;6786;57.632;11.962;2023-09-30T04:30:25;100576.25;;;20.82;73.31
13011;BME280;6786;57.632;11.962;2023-09-30T04:32:55;100574.56;;;20.81;73.39
13011;BME280;6786;57.632;11.962;2023-09-30T04:35:25;100574.25;;;20.84;72.94
13011;BME280;6786;57.632;11.962;2023-09-30T04:37:53;100579.63;;;20.84;73.27
13011;BME280;6786;57.632;11.962;2023-09-30T04:40:21;100567.19;;;20.83;73.22
13011;BME280;6786;57.632;11.962;2023-09-30T04:42:49;100568.88;;;20.84;73.21
13011;BME280;6786;57.632;11.962;2023-09-30T04:45:17;100569.72;;;20.85;73.18
13011;BME280;6786;57.632;11.962;2023-09-30T04:47:47;100574.25;;;20.84;72.94
13011;BME280;6786;57.632;11.962;2023-09-30T04:50:18;100564.78;;;20.80;73.21
13011;BME280;6786;57.632;11.962;2023-09-30T04:52:50;100569.19;;;20.81;73.22
13011;BME280;6786;57.632;11.962;2023-09-30T04:55:18;100577.09;;;20.83;73.03
13011;BME280;6786;57.632;11.962;2023-09-30T04:57:47;100566.34;;;20.83;72.84
13011;BME280;6786;57.632;11.962;2023-09-30T05:00:17;100577.09;;;20.83;73.21
13011;BME280;6786;57.632;11.962;2023-09-30T05:02:48;100592.38;;;20.82;73.09
13011;BME280;6786;57.632;11.962;2023-09-30T05:05:18;100587.00;;;20.82;73.07
13011;BME280;6786;57.632;11.962;2023-09-30T05:07:46;100586.13;;;20.82;72.98
13011;BME280;6786;57.632;11.962;2023-09-30T05:10:15;100594.03;;;20.83;72.72
13011;BME280;6786;57.632;11.962;2023-09-30T05:12:43;100593.22;;;20.83;72.94
13011;BME280;6786;57.632;11.962;2023-09-30T05:15:15;100572.84;;;20.80;72.90
13011;BME280;6786;57.632;11.962;2023-09-30T05:17:44;100588.97;;;20.80;72.91
13011;BME280;6786;57.632;11.962;2023-09-30T05:20:14;100592.66;;;20.79;73.08
13011;BME280;6786;57.632;11.962;2023-09-30T05:22:46;100601.44;;;20.81;73.02
13011;BME280;6786;57.632;11.962;2023-09-30T05:25:15;100594.34;;;20.80;73.12
13011;BME280;6786;57.632;11.962;2023-09-30T05:27:45;100598.31;;;20.76;72.83
13011;BME280;6786;57.632;11.962;2023-09-30T05:30:15;100599.84;;;20.79;72.93
13011;BME280;6786;57.632;11.962;2023-09-30T05:32:43;100603.41;;;20.79;72.97
13011;BME280;6786;57.632;11.962;2023-09-30T05:35:13;100608.47;;;20.82;72.92
13011;BME280;6786;57.632;11.962;2023-09-30T05:37:46;100610.44;;;20.80;72.75
13011;BME280;6786;57.632;11.962;2023-09-30T05:40:14;100606.78;;;20.81;72.99
13011;BME280;6786;57.632;11.962;2023-09-30T05:42:50;100599.72;;;20.80;72.76
13011;BME280;6786;57.632;11.962;2023-09-30T05:45:18;100601.72;;;20.78;72.99
13011;BME280;6786;57.632;11.962;2023-09-30T05:47:47;100601.72;;;20.78;72.98
13011;BME280;6786;57.632;11.962;2023-09-30T05:50:18;100608.78;;;20.79;72.89
13011;BME280;6786;57.632;11.962;2023-09-30T05:52:53;100606.78;;;20.81;72.54
13011;BME280;6786;57.632;11.962;2023-09-30T05:55:22;100595.19;;;20.81;72.78
13011;BME280;6786;57.632;11.962;2023-09-30T05:57:53;100614.84;;;20.81;72.42
13011;BME280;6786;57.632;11.962;2023-09-30T06:00:22;100611.16;;;20.82;72.67
13011;BME280;6786;57.632;11.962;2023-09-30T06:02:55;100606.78;;;20.81;72.70
13011;BME280;6786;57.632;11.962;2023-09-30T06:05:23;100605.09;;;20.80;72.50
13011;BME280;6786;57.632;11.962;2023-09-30T06:07:54;100613.00;;;20.82;72.80
13011;BME280;6786;57.632;11.962;2023-09-30T06:10:22;100610.44;;;20.80;72.46
13011;BME280;6786;57.632;11.962;2023-09-30T06:12:53;100620.22;;;20.81;72.53
13011;BME280;6786;57.632;11.962;2023-09-30T06:15:23;100629.97;;;20.82;72.41
13011;BME280;6786;57.632;11.962;2023-09-30T06:17:53;100636.19;;;20.83;72.50
13011;BME280;6786;57.632;11.962;2023-09-30T06:20:22;100633.66;;;20.81;72.49
13011;BME280;6786;57.632;11.962;2023-09-30T06:22:55;100620.06;;;20.83;72.43
13011;BME280;6786;57.632;11.962;2023-09-30T06:25:23;100633.66;;;20.81;72.33
13011;BME280;6786;57.632;11.962;2023-09-30T06:27:52;100631.66;;;20.83;72.21
13011;BME280;6786;57.632;11.962;2023-09-30T06:30:21;100637.03;;;20.83;72.12
13011;BME280;6786;57.632;11.962;2023-09-30T06:32:56;100638.03;;;20.82;72.32
13011;BME280;6786;57.632;11.962;2023-09-30T06:35:27;100643.41;;;20.82;72.29
13011;BME280;6786;57.632;11.962;2023-09-30T06:37:58;100643.41;;;20.82;72.02
13011;BME280;6786;57.632;11.962;2023-09-30T06:40:28;100649.78;;;20.81;72.07
13011;BME280;6786;57.632;11.962;2023-09-30T06:42:56;100662.19;;;20.82;72.39
13011;BME280;6786;57.632;11.962;2023-09-30T06:45:24;100664.19;;;20.80;72.19
13011;BME280;6786;57.632;11.962;2023-09-30T06:47:53;100657.41;;;20.76;72.25
13011;BME280;6786;57.632;11.962;2023-09-30T06:50:21;100632.25;;;20.77;72.01
13011;BME280;6786;57.632;11.962;2023-09-30T06:52:50;100664.47;;;20.77;72.11
13011;BME280;6786;57.632;11.962;2023-09-30T06:55:20;100646.38;;;20.79;72.01
13011;BME280;6786;57.632;11.962;2023-09-30T06:57:48;100660.81;;;20.78;72.10
13011;BME280;6786;57.632;11.962;2023-09-30T07:00:16;100668.88;;;20.78;72.22
13011;BME280;6786;57.632;11.962;2023-09-30T07:02:44;100656.81;;;20.82;72.08
13011;BME280;6786;57.632;11.962;2023-09-30T07:05:14;100672.94;;;20.82;72.17
13011;BME280;6786;57.632;11.962;2023-09-30T07:07:43;100671.25;;;20.81;71.81
13011;BME280;6786;57.632;11.962;2023-09-30T07:10:12;100674.94;;;20.80;71.76
13011;BME280;6786;57.632;11.962;2023-09-30T07:12:42;100667.56;;;20.82;71.68
13011;BME280;6786;57.632;11.962;2023-09-30T07:15:10;100677.75;;;20.79;71.93
13011;BME280;6786;57.632;11.962;2023-09-30T07:17:40;100661.69;;;20.69;72.15
13011;BME280;6786;57.632;11.962;2023-09-30T07:20:11;100686.97;;;20.76;71.93
13011;BME280;6786;57.632;11.962;2023-09-30T07:22:40;100695.03;;;20.76;72.08
13011;BME280;6786;57.632;11.962;2023-09-30T07:25:25;100702.06;;;20.77;72.05
13011;BME280;6786;57.632;11.962;2023-09-30T07:27:54;100705.78;;;20.76;72.11
13011;BME280;6786;57.632;11.962;2023-09-30T07:30:23;100697.00;;;20.74;71.96
13011;BME280;6786;57.632;11.962;2023-09-30T07:32:51;100700.41;;;20.76;71.76
13011;BME280;6786;57.632;11.962;2023-09-30T07:35:19;100707.44;;;20.77;72.04
13011;BME280;6786;57.632;11.962;2023-09-30T07:37:48;100696.72;;;20.77;71.71
13011;BME280;6786;57.632;11.962;2023-09-30T07:40:18;100695.03;;;20.76;71.78
13011;BME280;6786;57.632;11.962;2023-09-30T07:42:47;100709.16;;;20.78;71.64
13011;BME280;6786;57.632;11.962;2023-09-30T07:45:18;100703.78;;;20.78;71.62
13011;BME280;6786;57.632;11.962;2023-09-30T07:47:46;100712.81;;;20.77;71.87
13011;BME280;6786;57.632;11.962;2023-09-30T07:50:16;100718.75;;;20.81;71.76
13011;BME280;6786;57.632;11.962;2023-09-30T07:52:44;100699.69;;;20.74;71.48
13011;BME280;6786;57.632;11.962;2023-09-30T07:55:13;100649.91;;;20.43;71.56
13011;BME280;6786;57.632;11.962;2023-09-30T07:57:43;100720.72;;;20.79;71.48
13011;BME280;6786;57.632;11.962;2023-09-30T08:00:13;100715.38;;;20.79;71.46
13011;BME280;6786;57.632;11.962;2023-09-30T08:02:44;100731.47;;;20.79;71.69
13011;BME280;6786;57.632;11.962;2023-09-30T08:05:12;100723.28;;;20.80;71.48
13011;BME280;6786;57.632;11.962;2023-09-30T08:07:41;100721.59;;;20.79;71.57
13011;BME280;6786;57.632;11.962;2023-09-30T08:10:10;100737.72;;;20.79;71.39
13011;BME280;6786;57.632;11.962;2023-09-30T08:12:41;100726.97;;;20.79;71.54
13011;BME280;6786;57.632;11.962;2023-09-30T08:15:12;100730.66;;;20.78;71.35
13011;BME280;6786;57.632;11.962;2023-09-30T08:17:41;100739.69;;;20.77;71.35
13011;BME280;6786;57.632;11.962;2023-09-30T08:20:11;100737.13;;;20.76;71.85
13011;BME280;6786;57.632;11.962;2023-09-30T08:22:40;100724.72;;;20.75;71.63
13011;BME280;6786;57.632;11.962;2023-09-30T08:25:09;100721.31;;;20.73;71.76
13011;BME280;6786;57.632;11.962;2023-09-30T08:27:38;100728.25;;;20.75;71.54
13011;BME280;6786;57.632;11.962;2023-09-30T08:30:07;100738.00;;;20.76;71.56
13011;BME280;6786;57.632;11.962;2023-09-30T08:32:37;100681.44;;;20.41;71.64
13011;BME280;6786;57.632;11.962;2023-09-30T08:35:06;100728.94;;;20.77;71.56
13011;BME280;6786;57.632;11.962;2023-09-30T08:37:37;100724.13;;;20.81;71.16
13011;BME280;6786;57.632;11.962;2023-09-30T08:40:06;100723.28;;;20.80;71.48
13011;BME280;6786;57.632;11.962;2023-09-30T08:42:38;100724.13;;;20.81;71.28
13011;BME280;6786;57.632;11.962;2023-09-30T08:45:10;100726.66;;;20.82;71.04
13011;BME280;6786;57.632;11.962;2023-09-30T08:47:41;100713.38;;;20.81;71.17
13011;BME280;6786;57.632;11.962;2023-09-30T08:50:10;100721.88;;;20.76;71.35
13011;BME280;6786;57.632;11.962;2023-09-30T08:52:41;100731.34;;;20.80;71.30
13011;BME280;6786;57.632;11.962;2023-09-30T08:55:11;100746.47;;;20.81;71.26
13011;BME280;6786;57.632;11.962;2023-09-30T08:57:41;100743.09;;;20.79;71.24
13011;BME280;6786;57.632;11.962;2023-09-30T09:00:11;100757.22;;;20.81;71.06
13011;BME280;6786;57.632;11.962;2023-09-30T09:02:41;100766.97;;;20.82;70.99
13011;BME280;6786;57.632;11.962;2023-09-30T09:05:09;100767.97;;;20.81;71.07
13011;BME280;6786;57.632;11.962;2023-09-30T09:07:40;100759.91;;;20.81;71.40
13011;BME280;6786;57.632;11.962;2023-09-30T09:10:10;100773.34;;;20.81;70.96
13011;BME280;6786;57.632;11.962;2023-09-30T09:12:41;100780.69;;;20.79;70.93
13011;BME280;6786;57.632;11.962;2023-09-30T09:15:22;100775.16;;;20.81;71.05
13011;BME280;6786;57.632;11.962;2023-09-30T09:17:52;100782.38;;;20.80;70.88
13011;BME280;6786;57.632;11.962;2023-09-30T09:20:21;100778.00;;;20.79;71.08
13011;BME280;6786;57.632;11.962;2023-09-30T09:22:53;100686.53;;;20.25;71.16
13011;BME280;6786;57.632;11.962;2023-09-30T09:25:23;100777.84;;;20.81;70.89
13011;BME280;6786;57.632;11.962;2023-09-30T09:27:51;100776.03;;;20.81;70.75
13011;BME280;6786;57.632;11.962;2023-09-30T09:30:22;100769.81;;;20.81;71.32
13011;BME280;6786;57.632;11.962;2023-09-30T09:32:58;100780.41;;;20.82;71.01
13011;BME280;6786;57.632;11.962;2023-09-30T09:35:27;100772.34;;;20.82;70.85
13011;BME280;6786;57.632;11.962;2023-09-30T09:38:00;100780.41;;;20.82;70.85
13011;BME280;6786;57.632;11.962;2023-09-30T09:40:29;100773.34;;;20.81;70.90
13011;BME280;6786;57.632;11.962;2023-09-30T09:42:58;100771.63;;;20.80;71.23
13011;BME280;6786;57.632;11.962;2023-09-30T09:45:27;100771.91;;;20.77;71.02
13011;BME280;6786;57.632;11.962;2023-09-30T09:47:59;100780.69;;;20.79;71.14
13011;BME280;6786;57.632;11.962;2023-09-30T09:50:27;100782.66;;;20.77;71.25
13011;BME280;6786;57.632;11.962;2023-09-30T09:52:56;100795.81;;;20.80;71.15
13011;BME280;6786;57.632;11.962;2023-09-30T09:55:27;100793.97;;;20.81;71.14
13011;BME280;6786;57.632;11.962;2023-09-30T09:57:56;100799.34;;;20.81;71.08
13011;BME280;6786;57.632;11.962;2023-09-30T10:00:26;100793.13;;;20.80;71.17
13011;BME280;6786;57.632;11.962;2023-09-30T10:02:56;100779.28;;;20.75;70.78
13011;BME280;6786;57.632;11.962;2023-09-30T10:05:25;100807.56;;;20.79;71.02
13011;BME280;6786;57.632;11.962;2023-09-30T10:07:57;100814.75;;;20.79;70.88
13011;BME280;6786;57.632;11.962;2023-09-30T10:10:30;100799.97;;;20.56;71.37
13011;BME280;6786;57.632;11.962;2023-09-30T10:13:03;100811.53;;;20.75;71.06
13011;BME280;6786;57.632;11.962;2023-09-30T10:15:41;100815.19;;;20.74;71.17
13011;BME280;6786;57.632;11.962;2023-09-30T10:18:11;100815.19;;;20.74;71.09
13011;BME280;6786;57.632;11.962;2023-09-30T10:20:43;100823.25;;;20.74;71.35
13011;BME280;6786;57.632;11.962;2023-09-30T10:23:23;100820.56;;;20.74;70.92
13011;BME280;6786;57.632;11.962;2023-09-30T10:26:13;100831.31;;;20.74;70.84
13011;BME280;6786;57.632;11.962;2023-09-30T10:28:45;100838.66;;;20.72;71.23
13011;BME280;6786;57.632;11.962;2023-09-30T10:31:17;100833.97;;;20.74;71.20
13011;BME280;6786;57.632;11.962;2023-09-30T10:34:22;100758.03;;;20.26;70.48
13011;BME280;6786;57.632;11.962;2023-09-30T10:36:50;100834.97;;;20.73;71.32
13011;BME280;6786;57.632;11.962;2023-09-30T10:39:53;100825.94;;;20.74;70.74
13011;BME280;6786;57.632;11.962;2023-09-30T10:42:48;100827.94;;;20.72;70.73
13011;BME280;6786;57.632;11.962;2023-09-30T10:45:43;100838.66;;;20.72;70.87
13011;BME280;6786;57.632;11.962;2023-09-30T10:48:36;100836.00;;;20.72;70.85
13011;BME280;6786;57.632;11.962;2023-09-30T10:51:12;100833.31;;;20.72;71.12
13011;BME280;6786;57.632;11.962;2023-09-30T10:53:45;100842.31;;;20.71;71.34
13011;BME280;6786;57.632;11.962;2023-09-30T10:56:15;100828.75;;;20.73;71.27
13011;BME280;6786;57.632;11.962;2023-09-30T10:58:46;100840.34;;;20.73;71.20
13011;BME280;6786;57.632;11.962;2023-09-30T11:01:16;100850.09;;;20.74;71.26
13011;BME280;6786;57.632;11.962;2023-09-30T11:03:45;100851.09;;;20.73;71.11
13011;BME280;6786;57.632;11.962;2023-09-30T11:06:15;100857.47;;;20.72;71.02
13011;BME280;6786;57.632;11.962;2023-09-30T11:08:51;100845.72;;;20.73;70.96
13011;BME280;6786;57.632;11.962;2023-09-30T11:11:32;100837.25;;;20.68;70.85
13011;BME280;6786;57.632;11.962;2023-09-30T11:14:03;100847.41;;;20.74;70.91
13011;BME280;6786;57.632;11.962;2023-09-30T11:16:41;100842.91;;;20.75;70.87
13011;BME280;6786;57.632;11.962;2023-09-30T11:19:11;100831.88;;;20.68;71.23
13011;BME280;6786;57.632;11.962;2023-09-30T11:21:39;100837.53;;;20.75;71.15
13011;BME280;6786;57.632;11.962;2023-09-30T11:24:08;100844.03;;;20.72;71.26
13011;BME280;6786;57.632;11.962;2023-09-30T11:26:37;100851.09;;;20.73;71.24
13011;BME280;6786;57.632;11.962;2023-09-30T11:29:10;100853.50;;;20.76;71.31
13011;BME280;6786;57.632;11.962;2023-09-30T11:31:39;100853.50;;;20.76;70.91
13011;BME280;6786;57.632;11.962;2023-09-30T11:34:08;100856.19;;;20.76;71.18
13011;BME280;6786;57.632;11.962;2023-09-30T11:36:38;100859.88;;;20.75;70.94
13011;BME280;6786;57.632;11.962;2023-09-30T11:39:06;100870.63;;;20.75;71.20
13011;BME280;6786;57.632;11.962;2023-09-30T11:41:37;100871.44;;;20.76;71.37
13011;BME280;6786;57.632;11.962;2023-09-30T11:44:07;100870.63;;;20.75;71.20
13011;BME280;6786;57.632;11.962;2023-09-30T11:46:54;100881.38;;;20.75;70.96
13011;BME280;6786;57.632;11.962;2023-09-30T11:49:26;100867.22;;;20.73;71.13
13011;BME280;6786;57.632;11.962;2023-09-30T11:51:55;100876.00;;;20.75;71.06
13011;BME280;6786;57.632;11.962;2023-09-30T11:54:29;100870.63;;;20.75;71.03
13011;BME280;6786;57.632;11.962;2023-09-30T11:56:57;100871.44;;;20.76;71.15
13011;BME280;6786;57.632;11.962;2023-09-30T11:59:26;100872.31;;;20.76;71.11
13011;BME280;6786;57.632;11.962;2023-09-30T12:01:55;100870.63;;;20.75;71.16
13011;BME280;6786;57.632;11.962;2023-09-30T12:04:41;100873.31;;;20.75;70.83
13011;BME280;6786;57.632;11.962;2023-09-30T12:07:11;100876.97;;;20.74;71.14
13011;BME280;6786;57.632;11.962;2023-09-30T12:09:39;100870.63;;;20.75;71.11
13011;BME280;6786;57.632;11.962;2023-09-30T12:12:08;100880.66;;;20.73;71.16
13011;BME280;6786;57.632;11.962;2023-09-30T12:14:38;100873.31;;;20.75;71.11
13011;BME280;6786;57.632;11.962;2023-09-30T12:17:08;100887.56;;;20.76;70.89
13011;BME280;6786;57.632;11.962;2023-09-30T12:19:39;100886.75;;;20.75;70.85
13011;BME280;6786;57.632;11.962;2023-09-30T12:22:09;100878.69;;;20.75;70.69
13011;BME280;6786;57.632;11.962;2023-09-30T12:24:38;100878.69;;;20.75;70.82
13011;BME280;6786;57.632;11.962;2023-09-30T12:27:07;100876.00;;;20.75;71.08
13011;BME280;6786;57.632;11.962;2023-09-30T12:29:35;100883.06;;;20.76;70.99
13011;BME280;6786;57.632;11.962;2023-09-30T12:32:05;100881.38;;;20.75;70.81
13011;BME280;6786;57.632;11.962;2023-09-30T12:34:35;100891.09;;;20.76;71.06
13011;BME280;6786;57.632;11.962;2023-09-30T12:37:03;100881.38;;;20.75;71.02
13011;BME280;6786;57.632;11.962;2023-09-30T12:39:31;100882.19;;;20.76;71.14
13011;BME280;6786;57.632;11.962;2023-09-30T12:42:00;100895.75;;;20.74;70.74
13011;BME280;6786;57.632;11.962;2023-09-30T12:44:29;100888.72;;;20.73;70.95
13011;BME280;6786;57.632;11.962;2023-09-30T12:46:58;100877.97;;;20.73;71.14
13011;BME280;6786;57.632;11.962;2023-09-30T12:49:26;100885.03;;;20.74;70.99
13011;BME280;6786;57.632;11.962;2023-09-30T12:51:55;100889.56;;;20.74;70.73
13011;BME280;6786;57.632;11.962;2023-09-30T12:54:25;100880.66;;;20.73;70.81
13011;BME280;6786;57.632;11.962;2023-09-30T12:56:53;100872.59;;;20.73;71.20
13011;BME280;6786;57.632;11.962;2023-09-30T12:59:22;100883.63;;;20.70;70.95
13011;BME280;6786;57.632;11.962;2023-09-30T13:01:52;100885.31;;;20.71;71.16
13011;BME280;6786;57.632;11.962;2023-09-30T13:04:20;100882.63;;;20.71;71.14